createdAt,value
2022-12-14T00:02:02.298Z,74.77
2022-12-14T00:07:00.187Z,71.90
2022-12-14T00:11:57.970Z,70.77
2022-12-14T00:16:57.128Z,67.58
2022-12-14T00:21:54.915Z,68.03
2022-12-14T00:26:52.891Z,67.33
2022-12-14T00:31:51.214Z,67.74
2022-12-14T00:36:50.448Z,67.94
2022-12-14T00:41:48.322Z,68.51
2022-12-14T00:46:46.168Z,67.87
2022-12-14T00:51:43.955Z,68.60
2022-12-14T00:56:43.119Z,68.30
2022-12-14T01:01:41.011Z,69.53
2022-12-14T01:06:38.836Z,69.79
2022-12-14T01:11:36.752Z,69.49
2022-12-14T01:16:36.120Z,70.36
2022-12-14T01:21:34.786Z,70.47
2022-12-14T01:26:34.179Z,70.20
2022-12-14T01:31:33.222Z,70.23
2022-12-14T01:36:33.473Z,70.29
2022-12-14T01:41:32.094Z,69.79
2022-12-14T01:46:32.489Z,69.47
2022-12-14T01:51:31.187Z,69.93
2022-12-14T01:56:31.355Z,70.51
2022-12-14T02:01:29.429Z,70.94
2022-12-14T02:06:29.784Z,71.40
2022-12-14T02:11:32.635Z,71.65
2022-12-14T02:16:32.350Z,71.44
2022-12-14T02:21:37.705Z,71.25
2022-12-14T02:26:50.677Z,72.47
2022-12-14T02:31:54.957Z,71.07
2022-12-14T02:36:58.593Z,71.17
2022-12-14T02:42:03.538Z,71.12
2022-12-14T02:47:05.794Z,71.06
2022-12-14T02:52:07.147Z,71.11
2022-12-14T02:57:10.083Z,70.88
2022-12-14T03:02:10.492Z,71.12
2022-12-14T03:07:23.168Z,71.31
2022-12-14T03:12:22.568Z,70.98
2022-12-14T03:17:23.239Z,70.90
2022-12-14T03:22:23.434Z,71.13
2022-12-14T03:27:25.363Z,71.18
2022-12-14T03:32:27.100Z,69.80
2022-12-14T03:37:29.014Z,69.68
2022-12-14T03:42:31.678Z,70.20
2022-12-14T03:47:39.966Z,70.00
2022-12-14T03:52:40.541Z,71.41
2022-12-14T03:57:47.850Z,69.87
2022-12-14T04:02:50.119Z,70.35
2022-12-14T04:07:51.852Z,70.08
2022-12-14T04:13:07.611Z,69.55
2022-12-14T04:18:25.948Z,68.51
2022-12-14T04:23:39.885Z,68.38
2022-12-14T04:28:59.859Z,68.93
2022-12-14T04:34:02.408Z,68.43
2022-12-14T04:39:02.410Z,68.58
2022-12-14T04:44:04.518Z,68.73
2022-12-14T04:49:11.433Z,68.90
2022-12-14T04:54:12.900Z,69.74
2022-12-14T04:59:10.957Z,69.53
2022-12-14T05:04:15.553Z,69.50
2022-12-14T05:09:17.864Z,71.45
2022-12-14T05:14:19.023Z,73.07
2022-12-14T05:19:18.371Z,72.40
2022-12-14T05:24:16.730Z,71.92
2022-12-14T05:29:15.154Z,71.65
2022-12-14T05:34:12.991Z,72.69
2022-12-14T05:39:12.126Z,73.31
2022-12-14T05:44:10.072Z,73.90
2022-12-14T05:49:07.911Z,73.22
2022-12-14T05:54:05.974Z,72.16
2022-12-14T05:59:05.148Z,73.67
2022-12-14T06:04:02.963Z,76.31
2022-12-14T06:09:01.222Z,75.78
2022-12-14T06:13:59.167Z,76.30
2022-12-14T06:18:58.980Z,75.50
2022-12-14T06:23:57.631Z,75.18
2022-12-14T06:28:56.487Z,74.16
2022-12-14T06:33:54.785Z,74.19
2022-12-14T06:38:54.360Z,73.88
2022-12-14T06:43:52.389Z,74.01
2022-12-14T06:48:50.436Z,71.78
2022-12-14T06:53:51.098Z,72.17
2022-12-14T06:58:50.288Z,73.23
2022-12-14T07:03:48.976Z,73.41
2022-12-14T07:08:47.044Z,73.18
2022-12-14T07:13:45.220Z,72.29
2022-12-14T07:18:48.050Z,72.11
2022-12-14T07:23:46.465Z,73.43
2022-12-14T07:28:44.424Z,71.59
2022-12-14T07:33:42.911Z,70.14
2022-12-14T07:38:42.959Z,68.20
2022-12-14T07:43:41.418Z,69.94
2022-12-14T07:48:39.523Z,68.41
2022-12-14T07:53:38.036Z,68.27
2022-12-14T07:58:38.070Z,65.98
2022-12-14T08:03:36.266Z,67.31
2022-12-14T08:08:34.169Z,66.41
2022-12-14T08:13:32.460Z,67.86
2022-12-14T08:18:33.348Z,67.78
2022-12-14T08:23:31.666Z,68.70
2022-12-14T08:28:30.834Z,67.48
2022-12-14T08:33:28.970Z,68.04
2022-12-14T08:38:28.353Z,67.36
2022-12-14T08:43:26.472Z,68.33
2022-12-14T08:48:24.742Z,68.55
2022-12-14T08:53:22.567Z,66.22
2022-12-14T08:58:21.699Z,64.73
2022-12-14T09:03:19.497Z,66.81
2022-12-14T09:08:17.329Z,63.77
2022-12-14T09:13:15.140Z,64.79
2022-12-14T09:18:15.012Z,64.02
2022-12-14T09:23:12.980Z,61.59
2022-12-14T09:28:10.773Z,61.54
2022-12-14T09:33:08.607Z,61.63
2022-12-14T09:38:08.179Z,61.71
2022-12-14T09:43:07.172Z,60.59
2022-12-14T09:48:07.381Z,55.46
2022-12-14T09:53:09.181Z,59.76
2022-12-14T09:58:07.768Z,61.64
2022-12-14T10:03:20.835Z,64.03
2022-12-14T10:08:23.100Z,62.95
2022-12-14T10:13:28.367Z,64.02
2022-12-14T10:18:59.142Z,61.85
2022-12-14T10:24:00.143Z,62.02
2022-12-14T10:29:01.661Z,62.23
2022-12-14T10:34:05.556Z,60.16
2022-12-14T10:39:18.500Z,60.90
2022-12-14T10:44:18.439Z,64.43
2022-12-14T10:49:19.676Z,65.52
2022-12-14T10:54:25.454Z,64.00
2022-12-14T10:59:29.262Z,61.39
2022-12-14T11:04:31.996Z,57.06
2022-12-14T11:09:31.960Z,51.56
2022-12-14T11:14:29.804Z,57.17
2022-12-14T11:19:28.100Z,53.26
2022-12-14T11:24:26.815Z,48.52
2022-12-14T11:29:29.929Z,52.58
2022-12-14T11:34:31.350Z,52.82
2022-12-14T11:39:29.460Z,54.83
2022-12-14T11:44:36.174Z,57.80
2022-12-14T11:49:35.212Z,58.93
2022-12-14T11:54:33.971Z,59.19
2022-12-14T11:59:39.281Z,58.70
2022-12-14T12:04:43.556Z,61.30
2022-12-14T12:09:42.840Z,60.60
2022-12-14T12:14:42.039Z,64.16
2022-12-14T12:19:40.726Z,62.88
2022-12-14T12:25:08.380Z,61.53
2022-12-14T12:30:03.604Z,63.17
2022-12-14T12:35:12.044Z,63.85
2022-12-14T12:40:14.806Z,66.43
2022-12-14T12:45:20.202Z,67.15
2022-12-14T12:50:19.188Z,65.26
2022-12-14T12:55:19.002Z,65.43
2022-12-14T13:00:19.984Z,67.27
2022-12-14T13:05:45.653Z,66.86
2022-12-14T13:10:50.653Z,66.92
2022-12-14T13:16:04.390Z,67.70
2022-12-14T13:21:04.452Z,68.57
2022-12-14T13:26:08.387Z,67.16
2022-12-14T13:31:13.017Z,70.32
2022-12-14T13:36:19.596Z,69.20
2022-12-14T13:41:33.380Z,68.72
2022-12-14T13:46:32.919Z,67.49
2022-12-14T13:51:34.475Z,66.73
2022-12-14T13:56:34.200Z,68.75
2022-12-14T14:01:53.193Z,70.00
2022-12-14T14:06:53.023Z,71.92
2022-12-14T14:11:57.301Z,71.51
2022-12-14T14:16:57.057Z,72.26
2022-12-14T14:27:24.066Z,75.85
2022-12-14T14:32:39.892Z,79.06
2022-12-14T14:37:40.605Z,78.35
2022-12-14T14:42:42.446Z,78.13
2022-12-14T14:47:41.547Z,76.51
2022-12-14T14:53:00.576Z,76.21
2022-12-14T14:58:00.980Z,76.53
2022-12-14T15:02:59.362Z,77.12
2022-12-14T15:07:58.640Z,78.51
2022-12-14T15:13:00.779Z,77.58
2022-12-14T15:18:13.445Z,78.04
2022-12-14T15:23:14.519Z,78.40
2022-12-14T15:28:23.340Z,79.48
2022-12-14T15:33:24.935Z,78.61
2022-12-14T15:38:25.582Z,78.89
2022-12-14T15:43:28.006Z,79.24
2022-12-14T15:48:30.367Z,78.66
2022-12-14T15:53:31.460Z,78.35
2022-12-14T15:58:32.684Z,78.52
2022-12-14T16:03:33.219Z,78.40
2022-12-14T16:08:33.680Z,79.20
2022-12-14T16:13:34.387Z,79.30
2022-12-14T16:18:32.271Z,79.68
2022-12-14T16:23:31.442Z,79.53
2022-12-14T16:28:31.202Z,79.78
2022-12-14T16:33:30.879Z,79.12
2022-12-14T16:38:29.329Z,79.25
2022-12-14T16:43:32.014Z,79.19
2022-12-14T16:48:32.089Z,78.80
2022-12-14T16:53:30.721Z,78.00
2022-12-14T16:58:28.819Z,77.79
2022-12-14T17:03:27.956Z,76.71
2022-12-14T17:08:27.416Z,76.65
2022-12-14T17:13:25.219Z,76.57
2022-12-14T17:18:23.835Z,76.10
2022-12-14T17:23:21.736Z,75.86
2022-12-14T17:28:22.185Z,75.98
2022-12-14T17:33:20.012Z,76.33
2022-12-14T17:38:18.686Z,75.89
2022-12-14T17:43:19.799Z,75.77
2022-12-14T17:48:19.149Z,75.72
2022-12-14T17:53:17.971Z,75.81
2022-12-14T17:58:16.786Z,75.26
2022-12-14T18:03:15.493Z,75.18
2022-12-14T18:08:14.802Z,75.01
2022-12-14T18:13:15.580Z,74.83
2022-12-14T18:18:13.497Z,74.83
2022-12-14T18:23:13.395Z,75.53
2022-12-14T18:28:12.713Z,75.71
2022-12-14T18:33:12.975Z,75.74
2022-12-14T18:38:10.915Z,75.28
2022-12-14T18:43:08.769Z,75.77
2022-12-14T18:48:08.319Z,75.52
2022-12-14T18:53:06.563Z,76.33
2022-12-14T18:58:04.509Z,76.68
2022-12-14T19:03:03.210Z,76.97
2022-12-14T19:08:02.528Z,77.98
2022-12-14T19:13:00.494Z,78.85
2022-12-14T19:17:58.381Z,79.07
2022-12-14T19:22:56.231Z,78.86
2022-12-14T19:33:13.375Z,77.66
2022-12-14T19:38:13.525Z,78.18
2022-12-14T19:43:12.700Z,76.70
2022-12-14T19:48:13.350Z,77.31
2022-12-14T19:53:11.452Z,77.33
2022-12-14T19:58:09.276Z,78.00
2022-12-14T20:03:08.609Z,76.86
2022-12-14T20:08:07.816Z,77.80
2022-12-14T20:13:07.005Z,77.48
2022-12-14T20:18:04.839Z,76.36
2022-12-14T20:23:04.887Z,74.95
2022-12-14T20:28:02.723Z,75.04
2022-12-14T20:33:00.548Z,75.98
2022-12-14T20:37:58.363Z,76.01
2022-12-14T20:42:57.855Z,77.67
2022-12-14T20:47:55.723Z,77.44
2022-12-14T20:52:55.667Z,77.09
2022-12-14T20:57:54.069Z,77.99
2022-12-14T21:02:53.519Z,77.85
2022-12-14T21:07:52.078Z,79.43
2022-12-14T21:12:50.273Z,78.71
2022-12-14T21:17:48.207Z,79.32
2022-12-14T21:22:47.488Z,79.91
2022-12-14T21:27:45.505Z,79.50
2022-12-14T21:32:43.596Z,79.67
2022-12-14T21:37:41.491Z,78.38
2022-12-14T21:42:40.819Z,78.98
2022-12-14T21:47:38.635Z,79.26
2022-12-14T21:52:36.574Z,79.18
2022-12-14T21:58:00.414Z,79.77
2022-12-14T22:02:59.725Z,80.53
2022-12-14T22:07:58.181Z,80.00
2022-12-14T22:12:56.001Z,79.79
2022-12-14T22:17:53.819Z,79.56
2022-12-14T22:22:53.064Z,79.28
2022-12-14T22:27:51.553Z,79.14
2022-12-14T22:32:49.352Z,79.37
2022-12-14T22:37:47.488Z,79.37
2022-12-14T22:42:46.653Z,79.05
2022-12-14T22:47:44.470Z,79.43
2022-12-14T22:52:42.257Z,80.42
2022-12-14T22:57:41.806Z,79.95
2022-12-14T23:02:45.376Z,79.19
2022-12-14T23:07:45.832Z,80.16
2022-12-14T23:13:01.361Z,78.28
2022-12-14T23:18:21.289Z,80.00
2022-12-14T23:23:36.434Z,80.71
2022-12-14T23:28:51.498Z,80.44
2022-12-14T23:34:08.367Z,80.63
2022-12-14T23:39:23.914Z,80.00
2022-12-14T23:44:39.570Z,81.14
2022-12-14T23:49:56.581Z,82.09
2022-12-14T23:55:11.788Z,82.19
